createdAt,value
2018-08-07T00:06:23.919Z,20.66
2018-08-07T00:11:45.262Z,20.00
2018-08-07T00:17:10.344Z,19.80
2018-08-07T00:19:48.951Z,19.71
2018-08-07T00:22:18.964Z,19.58
2018-08-07T00:43:56.249Z,18.99
2018-08-07T00:46:25.555Z,18.95
2018-08-07T00:49:03.481Z,18.90
2018-08-07T01:08:30.095Z,18.74
2018-08-07T01:16:38.464Z,18.75
2018-08-07T01:19:11.761Z,19.37
2018-08-07T01:21:41.336Z,19.55
2018-08-07T01:26:59.312Z,18.95
2018-08-07T01:32:16.935Z,19.54
2018-08-07T01:34:47.728Z,19.13
2018-08-07T01:37:18.980Z,19.05
2018-08-07T01:39:59.653Z,18.99
2018-08-07T01:42:29.879Z,18.95
2018-08-07T01:45:00.113Z,18.95
2018-08-07T01:47:30.767Z,18.92
2018-08-07T01:52:48.519Z,18.84
2018-08-07T01:55:20.817Z,18.82
2018-08-07T02:00:37.529Z,18.78
2018-08-07T02:05:57.153Z,18.69
2018-08-07T02:08:27.777Z,18.67
2018-08-07T02:10:58.042Z,19.22
2018-08-07T02:13:28.243Z,19.38
2018-08-07T02:16:01.080Z,18.97
2018-08-07T02:18:43.286Z,18.88
2018-08-07T02:21:13.687Z,18.83
2018-08-07T02:26:32.190Z,18.77
2018-08-07T02:31:51.566Z,18.88
2018-08-07T02:39:57.171Z,18.84
2018-08-07T02:42:26.755Z,18.72
2018-08-07T02:44:58.481Z,18.62
2018-08-07T02:47:27.449Z,18.50
2018-08-07T02:49:56.906Z,18.39
2018-08-07T02:52:26.851Z,18.93
2018-08-07T03:06:14.910Z,18.73
2018-08-07T03:14:21.276Z,18.82
2018-08-07T03:16:53.549Z,18.33
2018-08-07T03:24:58.748Z,18.17
2018-08-07T03:33:05.058Z,18.10
2018-08-07T03:35:46.162Z,18.09
2018-08-07T04:03:23.669Z,18.25
2018-08-07T04:05:52.303Z,18.27
2018-08-07T04:11:16.261Z,18.92
2018-08-07T04:13:45.350Z,18.56
2018-08-07T04:27:31.987Z,18.56
2018-08-07T04:30:02.610Z,18.58
2018-08-07T04:32:39.104Z,18.60
2018-08-07T04:35:11.485Z,18.62
2018-08-07T04:43:15.544Z,19.09
2018-08-07T04:45:51.765Z,19.05
2018-08-07T04:56:58.439Z,19.35
2018-08-07T04:59:27.988Z,19.33
2018-08-07T05:07:39.338Z,19.64
2018-08-07T05:12:56.097Z,19.76
2018-08-07T05:18:15.084Z,20.60
2018-08-07T05:20:43.696Z,20.26
2018-08-07T05:34:31.013Z,20.65
2018-08-07T05:45:24.901Z,21.20
2018-08-07T05:48:03.287Z,21.35
2018-08-07T05:50:34.150Z,21.53
2018-08-07T05:53:03.158Z,21.71
2018-08-07T05:55:32.303Z,21.90
2018-08-07T05:58:01.541Z,22.08
2018-08-07T06:00:30.409Z,22.89
2018-08-07T06:03:01.041Z,22.72
2018-08-07T06:05:29.708Z,23.46
2018-08-07T06:10:48.168Z,23.46
2018-08-07T06:13:17.747Z,23.56
2018-08-07T06:15:47.882Z,23.73
2018-08-07T06:23:52.014Z,24.28
2018-08-07T06:31:58.270Z,24.70
2018-08-07T06:34:34.919Z,24.97
2018-08-07T06:37:04.656Z,25.26
2018-08-07T06:45:18.651Z,26.15
2018-08-07T06:47:47.274Z,26.31
2018-08-07T06:58:41.509Z,27.01
2018-08-07T07:03:58.230Z,27.80
2018-08-07T07:09:17.515Z,28.22
2018-08-07T07:14:34.181Z,28.60
2018-08-07T07:22:38.001Z,29.13
2018-08-07T07:25:07.520Z,29.29
2018-08-07T07:33:11.326Z,30.15
2018-08-07T07:35:47.541Z,30.20
2018-08-07T07:38:31.496Z,30.31
2018-08-07T07:41:07.696Z,31.34
2018-08-07T07:43:36.352Z,30.84
2018-08-07T07:46:05.011Z,30.86
2018-08-07T07:48:35.647Z,31.80
2018-08-07T07:51:04.533Z,31.32
2018-08-07T07:53:33.176Z,31.34
2018-08-07T07:56:02.707Z,31.41
2018-08-07T08:09:41.658Z,32.04
2018-08-07T08:12:10.300Z,32.17
2018-08-07T08:14:38.899Z,32.29
2018-08-07T08:25:45.529Z,32.71
2018-08-07T08:28:29.471Z,32.81
2018-08-07T08:30:58.096Z,32.98
2018-08-07T08:33:26.946Z,33.10
2018-08-07T08:41:32.073Z,33.43
2018-08-07T08:46:48.361Z,33.69
2018-08-07T09:06:06.557Z,34.77
2018-08-07T09:11:23.859Z,35.08
2018-08-07T09:13:53.573Z,35.24
2018-08-07T09:21:58.147Z,34.91
2018-08-07T09:24:26.786Z,35.15
2018-08-07T09:26:55.398Z,35.40
2018-08-07T09:29:24.035Z,35.60
2018-08-07T09:34:40.257Z,37.04
2018-08-07T09:37:08.861Z,36.52
2018-08-07T09:45:13.714Z,36.86
2018-08-07T09:47:42.923Z,37.04
2018-08-07T09:52:59.308Z,37.36
2018-08-07T09:55:28.003Z,37.51
2018-08-07T09:57:56.906Z,38.73
2018-08-07T10:00:26.376Z,37.96
2018-08-07T10:02:56.829Z,38.00
2018-08-07T10:05:27.685Z,37.99
2018-08-07T10:07:56.191Z,38.13
2018-08-07T10:10:27.713Z,38.12
2018-08-07T10:12:58.784Z,38.17
2018-08-07T10:21:02.588Z,38.42
2018-08-07T10:23:32.167Z,38.48
2018-08-07T10:26:08.417Z,38.54
2018-08-07T10:34:12.232Z,38.59
2018-08-07T10:36:40.878Z,38.70
2018-08-07T10:44:44.669Z,38.97
2018-08-07T10:58:23.657Z,39.44
2018-08-07T11:00:52.437Z,39.53
2018-08-07T11:17:19.891Z,40.11
2018-08-07T11:22:37.172Z,40.75
2018-08-07T11:25:05.796Z,40.03
2018-08-07T11:27:34.453Z,39.87
2018-08-07T11:30:03.142Z,40.04
2018-08-07T11:32:31.713Z,40.14
2018-08-07T11:35:15.593Z,41.41
2018-08-07T11:37:45.864Z,40.07
2018-08-07T11:43:02.049Z,39.71
2018-08-07T11:51:07.639Z,40.27
2018-08-07T11:53:43.885Z,41.68
2018-08-07T11:56:12.507Z,42.03
2018-08-07T12:01:28.633Z,41.27
2018-08-07T12:03:57.388Z,42.51
2018-08-07T12:09:13.601Z,41.94
2018-08-07T12:11:42.215Z,41.74
2018-08-07T12:16:58.645Z,41.59
2018-08-07T12:22:14.914Z,41.79
2018-08-07T12:24:51.299Z,41.80
2018-08-07T12:27:19.917Z,42.59
2018-08-07T12:29:49.500Z,41.69
2018-08-07T12:37:53.278Z,41.01
2018-08-07T12:40:22.385Z,41.03
2018-08-07T12:42:50.994Z,40.93
2018-08-07T12:48:07.213Z,40.38
2018-08-07T12:50:35.874Z,40.36
2018-08-07T12:53:05.421Z,40.46
2018-08-07T12:58:21.610Z,41.13
2018-08-07T13:03:37.840Z,43.02
2018-08-07T13:08:54.923Z,43.13
2018-08-07T13:11:24.289Z,42.10
2018-08-07T13:13:52.920Z,41.85
2018-08-07T13:16:21.548Z,41.76
2018-08-07T13:21:37.853Z,42.00
2018-08-07T13:24:06.781Z,42.09
2018-08-07T13:26:35.681Z,41.98
2018-08-07T13:29:04.242Z,41.77
2018-08-07T13:31:33.144Z,41.42
2018-08-07T13:34:02.477Z,41.37
2018-08-07T13:36:31.972Z,41.37
2018-08-07T13:44:36.721Z,42.38
2018-08-07T13:47:05.353Z,42.30
2018-08-07T13:49:33.976Z,42.60
2018-08-07T13:52:02.580Z,42.89
2018-08-07T13:54:31.175Z,43.03
2018-08-07T14:00:02.652Z,43.43
2018-08-07T14:02:31.293Z,42.20
2018-08-07T14:04:59.927Z,41.66
2018-08-07T14:10:18.055Z,40.99
2018-08-07T14:15:34.272Z,41.67
2018-08-07T14:18:02.907Z,41.93
2018-08-07T14:20:31.499Z,42.19
2018-08-07T14:23:01.114Z,42.42
2018-08-07T14:25:29.652Z,42.63
2018-08-07T14:27:58.486Z,42.52
2018-08-07T14:30:27.065Z,42.43
2018-08-07T14:32:55.692Z,42.33
2018-08-07T14:35:24.313Z,42.28
2018-08-07T14:37:52.943Z,42.49
2018-08-07T14:40:21.854Z,43.41
2018-08-07T14:42:58.257Z,42.75
2018-08-07T14:45:26.855Z,42.84
2018-08-07T14:47:58.390Z,42.81
2018-08-07T14:50:27.093Z,42.53
2018-08-07T14:52:56.130Z,42.36
2018-08-07T14:55:25.341Z,42.40
2018-08-07T14:57:54.589Z,42.62
2018-08-07T15:00:23.509Z,43.70
2018-08-07T15:02:52.374Z,43.93
2018-08-07T15:05:21.640Z,44.12
2018-08-07T15:07:51.080Z,43.44
2018-08-07T15:10:20.908Z,43.60
2018-08-07T15:12:49.770Z,43.99
2018-08-07T15:15:18.878Z,44.62
2018-08-07T15:17:47.436Z,45.21
2018-08-07T15:20:16.127Z,45.41
2018-08-07T15:22:45.057Z,46.49
2018-08-07T15:25:14.208Z,46.17
2018-08-07T15:27:44.010Z,44.71
2018-08-07T15:30:13.527Z,44.71
2018-08-07T15:32:42.438Z,46.16
2018-08-07T15:35:11.911Z,46.85
2018-08-07T15:37:40.771Z,45.78
2018-08-07T15:40:10.080Z,45.16
2018-08-07T15:42:38.916Z,45.02
2018-08-07T15:45:07.919Z,46.54
2018-08-07T15:47:36.949Z,46.25
2018-08-07T15:50:05.928Z,46.19
2018-08-07T15:52:34.751Z,46.28
2018-08-07T15:55:03.429Z,45.94
2018-08-07T15:57:33.445Z,45.13
2018-08-07T16:00:02.075Z,44.33
2018-08-07T16:02:30.766Z,43.84
2018-08-07T16:04:59.324Z,43.93
2018-08-07T16:07:27.922Z,44.36
2018-08-07T16:09:57.635Z,44.65
2018-08-07T16:12:26.236Z,44.71
2018-08-07T16:14:55.002Z,44.64
2018-08-07T16:17:24.296Z,44.41
2018-08-07T16:19:56.024Z,44.17
2018-08-07T16:22:24.749Z,44.18
2018-08-07T16:24:53.380Z,43.92
2018-08-07T16:27:21.990Z,43.96
2018-08-07T16:29:50.667Z,44.20
2018-08-07T16:32:19.522Z,44.52
2018-08-07T16:34:48.260Z,45.95
2018-08-07T16:37:32.963Z,44.74
2018-08-07T16:40:01.577Z,44.24
2018-08-07T16:42:31.147Z,43.76
2018-08-07T16:45:01.515Z,45.31
2018-08-07T16:47:30.172Z,44.69
2018-08-07T16:49:59.235Z,44.73
2018-08-07T16:52:28.127Z,44.85
2018-08-07T16:54:56.751Z,45.01
2018-08-07T16:57:26.936Z,45.02
2018-08-07T16:59:55.573Z,45.11
2018-08-07T17:02:24.755Z,46.50
2018-08-07T17:04:54.840Z,45.51
2018-08-07T17:07:26.414Z,45.29
2018-08-07T17:09:57.700Z,45.34
2018-08-07T17:12:27.078Z,44.92
2018-08-07T17:14:56.453Z,44.36
2018-08-07T17:17:26.974Z,43.69
2018-08-07T17:19:59.437Z,43.08
2018-08-07T17:22:28.842Z,42.29
2018-08-07T17:24:57.486Z,43.04
2018-08-07T17:30:13.693Z,40.80
2018-08-07T17:32:44.270Z,40.34
2018-08-07T17:35:13.424Z,39.82
2018-08-07T17:37:54.375Z,39.42
2018-08-07T17:40:25.131Z,39.11
2018-08-07T17:42:54.353Z,39.86
2018-08-07T17:45:23.836Z,38.86
2018-08-07T17:47:52.970Z,38.52
2018-08-07T17:50:22.588Z,38.24
2018-08-07T17:53:00.388Z,37.97
2018-08-07T17:55:49.079Z,37.71
2018-08-07T17:58:27.196Z,37.46
2018-08-07T18:00:55.981Z,38.11
2018-08-07T18:03:24.937Z,38.05
2018-08-07T18:05:57.393Z,37.21
2018-08-07T18:08:27.429Z,36.86
2018-08-07T18:10:57.007Z,37.35
2018-08-07T18:13:41.287Z,36.57
2018-08-07T18:16:10.569Z,36.95
2018-08-07T18:18:39.276Z,36.17
2018-08-07T18:21:07.915Z,35.83
2018-08-07T18:23:37.490Z,35.56
2018-08-07T18:26:06.978Z,35.34
2018-08-07T18:28:45.713Z,35.09
2018-08-07T18:34:11.463Z,34.63
2018-08-07T18:39:43.520Z,34.25
2018-08-07T18:47:48.560Z,33.71
2018-08-07T18:50:19.448Z,34.23
2018-08-07T18:52:53.648Z,34.25
2018-08-07T18:55:34.331Z,33.63
2018-08-07T19:01:00.322Z,33.19
2018-08-07T19:12:00.859Z,33.38
2018-08-07T19:14:33.374Z,32.80
2018-08-07T19:17:10.890Z,32.58
2018-08-07T19:30:59.320Z,31.94
2018-08-07T19:33:38.448Z,32.45
2018-08-07T19:36:24.962Z,31.91
2018-08-07T19:53:02.604Z,31.48
2018-08-07T19:55:45.448Z,31.32
2018-08-07T19:58:15.468Z,31.19
2018-08-07T20:00:44.532Z,31.08
2018-08-07T20:08:52.723Z,30.74
2018-08-07T20:11:22.193Z,30.67
2018-08-07T20:13:52.958Z,30.58
2018-08-07T20:16:21.656Z,30.54
2018-08-07T20:21:38.190Z,30.43
2018-08-07T20:27:09.807Z,30.35
2018-08-07T20:29:39.584Z,30.32
2018-08-07T20:32:13.204Z,30.92
2018-08-07T20:37:37.389Z,30.38
2018-08-07T20:40:13.816Z,30.36
2018-08-07T20:42:44.375Z,30.99
2018-08-07T20:45:14.161Z,30.54
2018-08-07T20:53:22.678Z,30.35
2018-08-07T20:58:40.519Z,30.22
2018-08-07T21:01:09.510Z,30.80
2018-08-07T21:03:47.096Z,30.30
2018-08-07T21:06:28.057Z,30.16
2018-08-07T21:11:52.654Z,30.61
2018-08-07T21:14:21.753Z,30.09
2018-08-07T21:16:54.740Z,29.97
2018-08-07T21:19:24.476Z,29.87
2018-08-07T21:21:57.257Z,29.80
2018-08-07T21:24:26.266Z,29.70
2018-08-07T21:27:06.265Z,29.60
2018-08-07T21:32:23.191Z,29.43
2018-08-07T21:37:40.017Z,29.90
2018-08-07T21:40:09.251Z,29.99
2018-08-07T21:42:42.197Z,30.02
2018-08-07T21:45:12.562Z,30.04
2018-08-07T21:47:42.881Z,29.49
2018-08-07T21:50:15.666Z,29.28
2018-08-07T21:52:44.851Z,29.77
2018-08-07T21:55:13.515Z,29.24
2018-08-07T21:57:42.400Z,29.07
2018-08-07T22:00:15.221Z,28.93
2018-08-07T22:02:43.858Z,28.81
2018-08-07T22:10:52.221Z,28.55
2018-08-07T22:30:16.240Z,28.75
2018-08-07T22:35:35.928Z,28.14
2018-08-07T22:43:41.604Z,27.92
2018-08-07T22:46:10.493Z,28.45
2018-08-07T22:48:39.658Z,27.98
2018-08-07T23:05:23.052Z,27.51
2018-08-07T23:08:03.898Z,27.44
2018-08-07T23:10:32.699Z,27.33
2018-08-07T23:13:03.322Z,27.84
2018-08-07T23:15:31.939Z,27.40
2018-08-07T23:18:05.134Z,27.29
2018-08-07T23:20:34.208Z,27.23
2018-08-07T23:23:03.113Z,27.17
2018-08-07T23:31:07.560Z,26.95
2018-08-07T23:39:28.563Z,26.83
2018-08-07T23:44:53.682Z,27.47
2018-08-07T23:47:22.847Z,27.09
2018-08-07T23:49:52.882Z,27.01
2018-08-07T23:55:09.455Z,27.11
2018-08-07T23:57:38.705Z,27.00
